sensor_id;sensor_type;location;lat;lon;timestamp;temperature;humidity
12588;DHT22;6359;51.450;7.346;2022-10-16T00:00:40;13.50;99.90
12588;DHT22;6359;51.450;7.346;2022-10-16T00:03:08;13.40;99.90
12588;DHT22;6359;51.450;7.346;2022-10-16T00:05:39;13.40;99.90
12588;DHT22;6359;51.450;7.346;2022-10-16T00:08:06;13.40;99.90
12588;DHT22;6359;51.450;7.346;2022-10-16T00:10:33;13.40;99.90
12588;DHT22;6359;51.450;7.346;2022-10-16T00:13:00;13.40;99.90
12588;DHT22;6359;51.450;7.346;2022-10-16T00:15:29;13.40;99.90
12588;DHT22;6359;51.450;7.346;2022-10-16T00:17:56;13.40;99.90
12588;DHT22;6359;51.450;7.346;2022-10-16T00:20:23;13.30;99.90
12588;DHT22;6359;51.450;7.346;2022-10-16T00:22:50;13.30;99.90
12588;DHT22;6359;51.450;7.346;2022-10-16T00:25:17;13.20;99.90
12588;DHT22;6359;51.450;7.346;2022-10-16T00:27:43;13.20;99.90
12588;DHT22;6359;51.450;7.346;2022-10-16T00:30:11;13.30;99.90
12588;DHT22;6359;51.450;7.346;2022-10-16T00:32:39;13.40;99.90
12588;DHT22;6359;51.450;7.346;2022-10-16T00:35:06;13.40;99.90
12588;DHT22;6359;51.450;7.346;2022-10-16T00:37:33;13.50;99.90
12588;DHT22;6359;51.450;7.346;2022-10-16T00:40:00;13.50;99.90
12588;DHT22;6359;51.450;7.346;2022-10-16T00:42:27;13.60;99.90
12588;DHT22;6359;51.450;7.346;2022-10-16T00:44:55;13.60;99.90
12588;DHT22;6359;51.450;7.346;2022-10-16T00:47:26;13.50;99.90
12588;DHT22;6359;51.450;7.346;2022-10-16T00:49:58;13.50;99.90
12588;DHT22;6359;51.450;7.346;2022-10-16T00:52:29;13.50;99.90
12588;DHT22;6359;51.450;7.346;2022-10-16T00:54:57;13.50;99.90
12588;DHT22;6359;51.450;7.346;2022-10-16T00:57:25;13.50;99.90
12588;DHT22;6359;51.450;7.346;2022-10-16T00:59:52;13.50;99.90
12588;DHT22;6359;51.450;7.346;2022-10-16T01:02:19;13.40;99.90
12588;DHT22;6359;51.450;7.346;2022-10-16T01:04:49;13.40;99.90
12588;DHT22;6359;51.450;7.346;2022-10-16T01:07:27;13.40;99.90
12588;DHT22;6359;51.450;7.346;2022-10-16T01:10:05;13.40;99.90
12588;DHT22;6359;51.450;7.346;2022-10-16T01:12:40;13.50;99.90
12588;DHT22;6359;51.450;7.346;2022-10-16T01:15:17;13.50;99.90
12588;DHT22;6359;51.450;7.346;2022-10-16T01:17:48;13.50;99.90
12588;DHT22;6359;51.450;7.346;2022-10-16T01:20:24;13.40;99.90
12588;DHT22;6359;51.450;7.346;2022-10-16T01:23:14;13.40;99.90
12588;DHT22;6359;51.450;7.346;2022-10-16T01:26:08;13.30;99.90
12588;DHT22;6359;51.450;7.346;2022-10-16T01:28:41;13.40;99.90
12588;DHT22;6359;51.450;7.346;2022-10-16T01:31:10;13.30;99.90
12588;DHT22;6359;51.450;7.346;2022-10-16T01:33:41;13.30;99.90
12588;DHT22;6359;51.450;7.346;2022-10-16T01:36:12;13.30;99.90
12588;DHT22;6359;51.450;7.346;2022-10-16T01:38:40;13.30;99.90
12588;DHT22;6359;51.450;7.346;2022-10-16T01:41:10;13.30;99.90
12588;DHT22;6359;51.450;7.346;2022-10-16T01:43:43;13.30;99.90
12588;DHT22;6359;51.450;7.346;2022-10-16T01:46:10;13.40;99.90
12588;DHT22;6359;51.450;7.346;2022-10-16T01:48:39;13.30;99.90
12588;DHT22;6359;51.450;7.346;2022-10-16T01:51:10;13.30;99.90
12588;DHT22;6359;51.450;7.346;2022-10-16T01:53:38;13.30;99.90
12588;DHT22;6359;51.450;7.346;2022-10-16T01:56:08;13.30;99.90
12588;DHT22;6359;51.450;7.346;2022-10-16T01:58:40;13.30;99.90
12588;DHT22;6359;51.450;7.346;2022-10-16T02:01:10;13.30;99.90
12588;DHT22;6359;51.450;7.346;2022-10-16T02:03:40;13.30;99.90
12588;DHT22;6359;51.450;7.346;2022-10-16T02:06:08;13.20;99.90
12588;DHT22;6359;51.450;7.346;2022-10-16T02:08:36;13.30;99.90
12588;DHT22;6359;51.450;7.346;2022-10-16T02:11:04;13.30;99.90
12588;DHT22;6359;51.450;7.346;2022-10-16T02:13:34;13.20;99.90
12588;DHT22;6359;51.450;7.346;2022-10-16T02:16:04;13.20;99.90
12588;DHT22;6359;51.450;7.346;2022-10-16T02:18:31;13.20;99.90
12588;DHT22;6359;51.450;7.346;2022-10-16T02:21:00;13.20;99.90
12588;DHT22;6359;51.450;7.346;2022-10-16T02:23:36;13.20;99.90
12588;DHT22;6359;51.450;7.346;2022-10-16T02:26:07;13.10;99.90
12588;DHT22;6359;51.450;7.346;2022-10-16T02:28:40;13.10;99.90
12588;DHT22;6359;51.450;7.346;2022-10-16T02:31:11;13.10;99.90
12588;DHT22;6359;51.450;7.346;2022-10-16T02:33:40;13.00;99.90
12588;DHT22;6359;51.450;7.346;2022-10-16T02:36:09;13.00;99.90
12588;DHT22;6359;51.450;7.346;2022-10-16T02:38:36;13.00;99.90
12588;DHT22;6359;51.450;7.346;2022-10-16T02:41:19;12.90;99.90
12588;DHT22;6359;51.450;7.346;2022-10-16T02:43:59;12.90;99.90
12588;DHT22;6359;51.450;7.346;2022-10-16T02:46:54;12.80;99.90
12588;DHT22;6359;51.450;7.346;2022-10-16T02:49:36;12.70;99.90
12588;DHT22;6359;51.450;7.346;2022-10-16T02:52:12;12.70;99.90
12588;DHT22;6359;51.450;7.346;2022-10-16T02:54:52;12.60;99.90
12588;DHT22;6359;51.450;7.346;2022-10-16T02:57:19;12.50;99.90
12588;DHT22;6359;51.450;7.346;2022-10-16T02:59:46;12.50;99.90
12588;DHT22;6359;51.450;7.346;2022-10-16T03:02:14;12.50;99.90
12588;DHT22;6359;51.450;7.346;2022-10-16T03:04:41;12.60;99.90
12588;DHT22;6359;51.450;7.346;2022-10-16T03:07:08;12.70;99.90
12588;DHT22;6359;51.450;7.346;2022-10-16T03:09:35;12.60;99.90
12588;DHT22;6359;51.450;7.346;2022-10-16T03:12:02;12.70;99.90
12588;DHT22;6359;51.450;7.346;2022-10-16T03:14:29;12.60;99.90
12588;DHT22;6359;51.450;7.346;2022-10-16T03:16:55;12.70;99.90
12588;DHT22;6359;51.450;7.346;2022-10-16T03:19:24;12.70;99.90
12588;DHT22;6359;51.450;7.346;2022-10-16T03:21:51;12.80;99.90
12588;DHT22;6359;51.450;7.346;2022-10-16T03:24:18;12.90;99.90
12588;DHT22;6359;51.450;7.346;2022-10-16T03:26:44;13.00;99.90
12588;DHT22;6359;51.450;7.346;2022-10-16T03:29:11;13.10;99.90
12588;DHT22;6359;51.450;7.346;2022-10-16T03:31:38;13.20;99.90
12588;DHT22;6359;51.450;7.346;2022-10-16T03:34:05;13.20;99.90
12588;DHT22;6359;51.450;7.346;2022-10-16T03:36:33;13.30;99.90
12588;DHT22;6359;51.450;7.346;2022-10-16T03:39:00;13.30;99.90
12588;DHT22;6359;51.450;7.346;2022-10-16T03:41:27;13.30;99.90
12588;DHT22;6359;51.450;7.346;2022-10-16T03:43:54;13.30;99.90
12588;DHT22;6359;51.450;7.346;2022-10-16T03:46:21;13.20;99.90
12588;DHT22;6359;51.450;7.346;2022-10-16T03:48:48;13.10;99.90
12588;DHT22;6359;51.450;7.346;2022-10-16T03:51:15;13.10;99.90
12588;DHT22;6359;51.450;7.346;2022-10-16T03:53:43;13.10;99.90
12588;DHT22;6359;51.450;7.346;2022-10-16T03:56:10;13.20;99.90
12588;DHT22;6359;51.450;7.346;2022-10-16T03:58:37;13.20;99.90
12588;DHT22;6359;51.450;7.346;2022-10-16T04:01:03;13.20;99.90
12588;DHT22;6359;51.450;7.346;2022-10-16T04:03:30;13.20;99.90
12588;DHT22;6359;51.450;7.346;2022-10-16T04:05:57;13.30;99.90
12588;DHT22;6359;51.450;7.346;2022-10-16T04:08:24;13.30;99.90
12588;DHT22;6359;51.450;7.346;2022-10-16T04:10:52;13.20;99.90
12588;DHT22;6359;51.450;7.346;2022-10-16T04:13:19;13.20;99.90
12588;DHT22;6359;51.450;7.346;2022-10-16T04:15:46;13.10;99.90
12588;DHT22;6359;51.450;7.346;2022-10-16T04:18:13;13.10;99.90
12588;DHT22;6359;51.450;7.346;2022-10-16T04:20:40;13.00;99.90
12588;DHT22;6359;51.450;7.346;2022-10-16T04:23:07;13.00;99.90
12588;DHT22;6359;51.450;7.346;2022-10-16T04:25:34;13.00;99.90
12588;DHT22;6359;51.450;7.346;2022-10-16T04:28:02;13.00;99.90
12588;DHT22;6359;51.450;7.346;2022-10-16T04:30:29;12.90;99.90
12588;DHT22;6359;51.450;7.346;2022-10-16T04:32:56;13.00;99.90
12588;DHT22;6359;51.450;7.346;2022-10-16T04:35:23;12.90;99.90
12588;DHT22;6359;51.450;7.346;2022-10-16T04:37:50;12.80;99.90
12588;DHT22;6359;51.450;7.346;2022-10-16T04:40:17;12.80;99.90
12588;DHT22;6359;51.450;7.346;2022-10-16T04:42:44;12.80;99.90
12588;DHT22;6359;51.450;7.346;2022-10-16T04:45:12;12.80;99.90
12588;DHT22;6359;51.450;7.346;2022-10-16T04:47:39;12.80;99.90
12588;DHT22;6359;51.450;7.346;2022-10-16T04:50:07;12.90;99.90
12588;DHT22;6359;51.450;7.346;2022-10-16T04:52:34;12.90;99.90
12588;DHT22;6359;51.450;7.346;2022-10-16T04:55:01;12.80;99.90
12588;DHT22;6359;51.450;7.346;2022-10-16T04:57:28;12.80;99.90
12588;DHT22;6359;51.450;7.346;2022-10-16T04:59:55;12.80;99.90
12588;DHT22;6359;51.450;7.346;2022-10-16T05:02:23;12.90;99.90
12588;DHT22;6359;51.450;7.346;2022-10-16T05:04:50;12.90;99.90
12588;DHT22;6359;51.450;7.346;2022-10-16T05:07:17;12.80;99.90
12588;DHT22;6359;51.450;7.346;2022-10-16T05:09:44;12.80;99.90
12588;DHT22;6359;51.450;7.346;2022-10-16T05:12:11;12.90;99.90
12588;DHT22;6359;51.450;7.346;2022-10-16T05:14:38;12.90;99.90
12588;DHT22;6359;51.450;7.346;2022-10-16T05:17:06;13.00;99.90
12588;DHT22;6359;51.450;7.346;2022-10-16T05:19:34;13.00;99.90
12588;DHT22;6359;51.450;7.346;2022-10-16T05:22:01;13.00;99.90
12588;DHT22;6359;51.450;7.346;2022-10-16T05:24:28;13.00;99.90
12588;DHT22;6359;51.450;7.346;2022-10-16T05:26:55;13.00;99.90
12588;DHT22;6359;51.450;7.346;2022-10-16T05:29:22;13.10;99.90
12588;DHT22;6359;51.450;7.346;2022-10-16T05:31:51;13.10;99.90
12588;DHT22;6359;51.450;7.346;2022-10-16T05:34:18;13.10;99.90
12588;DHT22;6359;51.450;7.346;2022-10-16T05:36:46;13.20;99.90
12588;DHT22;6359;51.450;7.346;2022-10-16T05:39:14;13.20;99.90
12588;DHT22;6359;51.450;7.346;2022-10-16T05:41:42;13.20;99.90
12588;DHT22;6359;51.450;7.346;2022-10-16T05:44:09;13.10;99.90
12588;DHT22;6359;51.450;7.346;2022-10-16T05:46:36;13.20;99.90
12588;DHT22;6359;51.450;7.346;2022-10-16T05:49:03;13.20;99.90
12588;DHT22;6359;51.450;7.346;2022-10-16T05:51:29;13.20;99.90
12588;DHT22;6359;51.450;7.346;2022-10-16T05:53:58;13.20;99.90
12588;DHT22;6359;51.450;7.346;2022-10-16T05:56:24;13.20;99.90
12588;DHT22;6359;51.450;7.346;2022-10-16T05:58:52;13.20;99.90
12588;DHT22;6359;51.450;7.346;2022-10-16T06:01:19;13.20;99.90
12588;DHT22;6359;51.450;7.346;2022-10-16T06:03:49;13.10;99.90
12588;DHT22;6359;51.450;7.346;2022-10-16T06:06:18;13.00;99.90
12588;DHT22;6359;51.450;7.346;2022-10-16T06:08:46;13.10;99.90
12588;DHT22;6359;51.450;7.346;2022-10-16T06:11:16;13.00;99.90
12588;DHT22;6359;51.450;7.346;2022-10-16T06:13:43;13.10;99.90
12588;DHT22;6359;51.450;7.346;2022-10-16T06:16:11;13.10;99.90
12588;DHT22;6359;51.450;7.346;2022-10-16T06:18:39;13.10;99.90
12588;DHT22;6359;51.450;7.346;2022-10-16T06:21:11;13.10;99.90
12588;DHT22;6359;51.450;7.346;2022-10-16T06:23:38;13.10;99.90
12588;DHT22;6359;51.450;7.346;2022-10-16T06:26:06;13.10;99.90
12588;DHT22;6359;51.450;7.346;2022-10-16T06:28:35;13.10;99.90
12588;DHT22;6359;51.450;7.346;2022-10-16T06:31:03;13.20;99.90
12588;DHT22;6359;51.450;7.346;2022-10-16T06:33:30;13.20;99.90
12588;DHT22;6359;51.450;7.346;2022-10-16T06:36:01;13.30;99.90
12588;DHT22;6359;51.450;7.346;2022-10-16T06:38:29;13.40;99.90
12588;DHT22;6359;51.450;7.346;2022-10-16T06:40:56;13.40;99.90
12588;DHT22;6359;51.450;7.346;2022-10-16T06:43:23;13.40;99.90
12588;DHT22;6359;51.450;7.346;2022-10-16T06:45:52;13.50;99.90
12588;DHT22;6359;51.450;7.346;2022-10-16T06:48:19;13.60;99.90
12588;DHT22;6359;51.450;7.346;2022-10-16T06:50:55;13.60;99.90
12588;DHT22;6359;51.450;7.346;2022-10-16T06:53:23;13.70;99.90
12588;DHT22;6359;51.450;7.346;2022-10-16T06:55:50;13.80;99.90
12588;DHT22;6359;51.450;7.346;2022-10-16T06:58:16;13.80;99.90
12588;DHT22;6359;51.450;7.346;2022-10-16T07:00:43;13.90;99.90
12588;DHT22;6359;51.450;7.346;2022-10-16T07:03:11;14.00;99.90
12588;DHT22;6359;51.450;7.346;2022-10-16T07:05:38;14.00;99.90
12588;DHT22;6359;51.450;7.346;2022-10-16T07:08:05;14.10;99.90
12588;DHT22;6359;51.450;7.346;2022-10-16T07:10:32;14.20;99.90
12588;DHT22;6359;51.450;7.346;2022-10-16T07:13:00;14.30;99.90
12588;DHT22;6359;51.450;7.346;2022-10-16T07:15:27;14.60;99.90
12588;DHT22;6359;51.450;7.346;2022-10-16T07:17:54;14.70;99.90
12588;DHT22;6359;51.450;7.346;2022-10-16T07:20:22;14.90;99.90
12588;DHT22;6359;51.450;7.346;2022-10-16T07:22:49;15.00;99.90
12588;DHT22;6359;51.450;7.346;2022-10-16T07:25:16;15.10;99.90
12588;DHT22;6359;51.450;7.346;2022-10-16T07:27:43;15.10;99.90
12588;DHT22;6359;51.450;7.346;2022-10-16T07:30:10;15.10;99.90
12588;DHT22;6359;51.450;7.346;2022-10-16T07:32:37;15.00;99.90
12588;DHT22;6359;51.450;7.346;2022-10-16T07:35:05;15.00;99.90
12588;DHT22;6359;51.450;7.346;2022-10-16T07:37:33;15.00;99.90
12588;DHT22;6359;51.450;7.346;2022-10-16T07:40:00;14.90;99.90
12588;DHT22;6359;51.450;7.346;2022-10-16T07:42:27;14.90;99.90
12588;DHT22;6359;51.450;7.346;2022-10-16T07:44:54;14.90;99.90
12588;DHT22;6359;51.450;7.346;2022-10-16T07:47:21;15.00;99.90
12588;DHT22;6359;51.450;7.346;2022-10-16T07:49:48;15.10;99.90
12588;DHT22;6359;51.450;7.346;2022-10-16T07:52:14;15.20;99.90
12588;DHT22;6359;51.450;7.346;2022-10-16T07:54:43;15.70;99.90
12588;DHT22;6359;51.450;7.346;2022-10-16T07:57:09;16.90;99.90
12588;DHT22;6359;51.450;7.346;2022-10-16T07:59:37;18.30;99.90
12588;DHT22;6359;51.450;7.346;2022-10-16T08:02:03;19.30;99.90
12588;DHT22;6359;51.450;7.346;2022-10-16T08:04:30;19.80;99.90
12588;DHT22;6359;51.450;7.346;2022-10-16T08:06:57;20.80;99.90
12588;DHT22;6359;51.450;7.346;2022-10-16T08:09:24;21.40;99.90
12588;DHT22;6359;51.450;7.346;2022-10-16T08:11:52;22.40;99.90
12588;DHT22;6359;51.450;7.346;2022-10-16T08:14:19;22.90;99.90
12588;DHT22;6359;51.450;7.346;2022-10-16T08:16:46;23.70;99.90
12588;DHT22;6359;51.450;7.346;2022-10-16T08:19:13;23.90;99.90
12588;DHT22;6359;51.450;7.346;2022-10-16T08:21:41;24.10;99.90
12588;DHT22;6359;51.450;7.346;2022-10-16T08:24:08;24.40;99.90
12588;DHT22;6359;51.450;7.346;2022-10-16T08:26:35;24.40;99.90
12588;DHT22;6359;51.450;7.346;2022-10-16T08:29:03;24.70;99.90
12588;DHT22;6359;51.450;7.346;2022-10-16T08:31:30;24.50;99.90
12588;DHT22;6359;51.450;7.346;2022-10-16T08:33:57;25.20;99.90
12588;DHT22;6359;51.450;7.346;2022-10-16T08:36:23;25.30;99.90
12588;DHT22;6359;51.450;7.346;2022-10-16T08:38:51;24.80;99.90
12588;DHT22;6359;51.450;7.346;2022-10-16T08:41:53;25.00;99.90
12588;DHT22;6359;51.450;7.346;2022-10-16T08:44:47;25.00;99.90
12588;DHT22;6359;51.450;7.346;2022-10-16T08:47:22;24.90;99.90
12588;DHT22;6359;51.450;7.346;2022-10-16T08:49:57;24.50;99.90
12588;DHT22;6359;51.450;7.346;2022-10-16T08:52:29;24.10;99.90
12588;DHT22;6359;51.450;7.346;2022-10-16T08:54:56;24.10;99.90
12588;DHT22;6359;51.450;7.346;2022-10-16T08:57:25;23.90;99.90
12588;DHT22;6359;51.450;7.346;2022-10-16T08:59:57;23.40;99.90
12588;DHT22;6359;51.450;7.346;2022-10-16T09:02:31;23.90;99.90
12588;DHT22;6359;51.450;7.346;2022-10-16T09:05:22;24.20;99.90
12588;DHT22;6359;51.450;7.346;2022-10-16T09:07:58;24.50;99.90
12588;DHT22;6359;51.450;7.346;2022-10-16T09:10:35;25.00;99.90
12588;DHT22;6359;51.450;7.346;2022-10-16T09:13:14;24.60;99.90
12588;DHT22;6359;51.450;7.346;2022-10-16T09:15:49;24.80;99.90
12588;DHT22;6359;51.450;7.346;2022-10-16T09:18:24;24.90;99.90
12588;DHT22;6359;51.450;7.346;2022-10-16T09:20:58;25.20;99.90
12588;DHT22;6359;51.450;7.346;2022-10-16T09:23:27;25.60;99.90
12588;DHT22;6359;51.450;7.346;2022-10-16T09:25:56;25.90;99.90
12588;DHT22;6359;51.450;7.346;2022-10-16T09:28:24;26.30;99.90
12588;DHT22;6359;51.450;7.346;2022-10-16T09:30:53;25.90;99.90
12588;DHT22;6359;51.450;7.346;2022-10-16T09:33:24;25.40;99.90
12588;DHT22;6359;51.450;7.346;2022-10-16T09:35:53;25.10;99.90
12588;DHT22;6359;51.450;7.346;2022-10-16T09:38:22;25.00;99.90
12588;DHT22;6359;51.450;7.346;2022-10-16T09:40:50;25.00;99.90
12588;DHT22;6359;51.450;7.346;2022-10-16T09:43:23;24.80;99.90
12588;DHT22;6359;51.450;7.346;2022-10-16T09:45:56;24.70;99.90
12588;DHT22;6359;51.450;7.346;2022-10-16T09:48:25;23.70;99.90
12588;DHT22;6359;51.450;7.346;2022-10-16T09:50:57;23.50;99.90
12588;DHT22;6359;51.450;7.346;2022-10-16T09:53:37;23.80;99.90
12588;DHT22;6359;51.450;7.346;2022-10-16T09:56:05;23.60;99.90
12588;DHT22;6359;51.450;7.346;2022-10-16T09:58:32;22.50;99.90
12588;DHT22;6359;51.450;7.346;2022-10-16T10:01:00;22.40;99.90
12588;DHT22;6359;51.450;7.346;2022-10-16T10:03:36;22.50;99.90
12588;DHT22;6359;51.450;7.346;2022-10-16T10:06:14;21.90;99.90
12588;DHT22;6359;51.450;7.346;2022-10-16T10:08:56;22.10;99.90
12588;DHT22;6359;51.450;7.346;2022-10-16T10:11:57;22.70;99.90
12588;DHT22;6359;51.450;7.346;2022-10-16T10:14:30;23.00;99.90
12588;DHT22;6359;51.450;7.346;2022-10-16T10:17:19;22.70;99.90
12588;DHT22;6359;51.450;7.346;2022-10-16T10:19:51;23.10;99.90
12588;DHT22;6359;51.450;7.346;2022-10-16T10:22:23;23.60;99.90
12588;DHT22;6359;51.450;7.346;2022-10-16T10:25:31;24.30;99.90
12588;DHT22;6359;51.450;7.346;2022-10-16T10:28:13;23.80;99.90
12588;DHT22;6359;51.450;7.346;2022-10-16T10:30:51;24.20;99.90
12588;DHT22;6359;51.450;7.346;2022-10-16T10:33:30;23.80;99.90
12588;DHT22;6359;51.450;7.346;2022-10-16T10:36:08;24.10;99.90
12588;DHT22;6359;51.450;7.346;2022-10-16T10:38:43;24.60;99.90
12588;DHT22;6359;51.450;7.346;2022-10-16T10:41:34;24.80;99.90
12588;DHT22;6359;51.450;7.346;2022-10-16T10:44:14;24.70;99.90
12588;DHT22;6359;51.450;7.346;2022-10-16T10:46:48;24.80;99.90
12588;DHT22;6359;51.450;7.346;2022-10-16T10:49:30;25.00;99.90
12588;DHT22;6359;51.450;7.346;2022-10-16T10:52:05;25.00;99.90
12588;DHT22;6359;51.450;7.346;2022-10-16T10:54:39;24.80;99.90
12588;DHT22;6359;51.450;7.346;2022-10-16T10:57:12;24.60;99.90
12588;DHT22;6359;51.450;7.346;2022-10-16T11:00:01;24.70;99.90
12588;DHT22;6359;51.450;7.346;2022-10-16T11:02:36;24.80;99.90
12588;DHT22;6359;51.450;7.346;2022-10-16T11:05:29;24.20;99.90
12588;DHT22;6359;51.450;7.346;2022-10-16T11:07:59;24.00;99.90
12588;DHT22;6359;51.450;7.346;2022-10-16T11:10:30;23.50;99.90
12588;DHT22;6359;51.450;7.346;2022-10-16T11:13:09;23.60;99.90
12588;DHT22;6359;51.450;7.346;2022-10-16T11:15:39;23.50;99.90
12588;DHT22;6359;51.450;7.346;2022-10-16T11:18:13;23.50;99.90
12588;DHT22;6359;51.450;7.346;2022-10-16T11:20:49;23.60;99.90
12588;DHT22;6359;51.450;7.346;2022-10-16T11:23:21;23.40;99.90
12588;DHT22;6359;51.450;7.346;2022-10-16T11:25:51;23.50;99.90
12588;DHT22;6359;51.450;7.346;2022-10-16T11:28:20;23.20;99.90
12588;DHT22;6359;51.450;7.346;2022-10-16T11:30:50;23.10;99.90
12588;DHT22;6359;51.450;7.346;2022-10-16T11:33:30;22.90;99.90
12588;DHT22;6359;51.450;7.346;2022-10-16T11:36:06;22.70;99.90
12588;DHT22;6359;51.450;7.346;2022-10-16T11:38:39;22.20;99.90
12588;DHT22;6359;51.450;7.346;2022-10-16T11:41:16;21.90;99.90
12588;DHT22;6359;51.450;7.346;2022-10-16T11:43:51;21.50;99.90
12588;DHT22;6359;51.450;7.346;2022-10-16T11:46:23;21.20;99.90
12588;DHT22;6359;51.450;7.346;2022-10-16T11:48:55;20.90;99.90
12588;DHT22;6359;51.450;7.346;2022-10-16T11:51:31;20.70;99.90
12588;DHT22;6359;51.450;7.346;2022-10-16T11:54:02;20.60;99.90
12588;DHT22;6359;51.450;7.346;2022-10-16T11:56:32;20.40;99.90
12588;DHT22;6359;51.450;7.346;2022-10-16T11:59:06;20.40;99.90
12588;DHT22;6359;51.450;7.346;2022-10-16T12:01:40;20.70;99.90
12588;DHT22;6359;51.450;7.346;2022-10-16T12:04:22;20.80;99.90
12588;DHT22;6359;51.450;7.346;2022-10-16T12:06:58;21.20;99.90
12588;DHT22;6359;51.450;7.346;2022-10-16T12:09:28;21.30;99.90
12588;DHT22;6359;51.450;7.346;2022-10-16T12:11:56;21.30;99.90
12588;DHT22;6359;51.450;7.346;2022-10-16T12:14:38;21.50;99.90
12588;DHT22;6359;51.450;7.346;2022-10-16T12:17:23;21.50;99.90
12588;DHT22;6359;51.450;7.346;2022-10-16T12:19:58;21.50;99.90
12588;DHT22;6359;51.450;7.346;2022-10-16T12:22:29;21.10;99.90
12588;DHT22;6359;51.450;7.346;2022-10-16T12:24:57;20.90;99.90
12588;DHT22;6359;51.450;7.346;2022-10-16T12:27:28;21.00;99.90
12588;DHT22;6359;51.450;7.346;2022-10-16T12:29:57;21.00;99.90
12588;DHT22;6359;51.450;7.346;2022-10-16T12:32:30;20.80;99.90
12588;DHT22;6359;51.450;7.346;2022-10-16T12:34:59;20.30;99.90
12588;DHT22;6359;51.450;7.346;2022-10-16T12:37:31;20.00;99.90
12588;DHT22;6359;51.450;7.346;2022-10-16T12:39:59;19.80;99.90
12588;DHT22;6359;51.450;7.346;2022-10-16T12:42:37;19.90;99.90
12588;DHT22;6359;51.450;7.346;2022-10-16T12:45:24;20.10;99.90
12588;DHT22;6359;51.450;7.346;2022-10-16T12:47:52;20.50;99.90
12588;DHT22;6359;51.450;7.346;2022-10-16T12:50:32;20.70;99.90
12588;DHT22;6359;51.450;7.346;2022-10-16T12:53:03;20.90;99.90
12588;DHT22;6359;51.450;7.346;2022-10-16T12:55:35;20.60;99.90
12588;DHT22;6359;51.450;7.346;2022-10-16T12:58:19;20.50;99.90
12588;DHT22;6359;51.450;7.346;2022-10-16T13:00:56;20.30;99.90
12588;DHT22;6359;51.450;7.346;2022-10-16T13:04:03;20.20;99.90
12588;DHT22;6359;51.450;7.346;2022-10-16T13:06:38;20.10;99.90
12588;DHT22;6359;51.450;7.346;2022-10-16T13:09:25;20.00;99.90
12588;DHT22;6359;51.450;7.346;2022-10-16T13:12:07;19.90;99.90
12588;DHT22;6359;51.450;7.346;2022-10-16T13:14:49;19.80;99.90
12588;DHT22;6359;51.450;7.346;2022-10-16T13:17:24;19.90;99.90
12588;DHT22;6359;51.450;7.346;2022-10-16T13:20:03;20.00;99.90
12588;DHT22;6359;51.450;7.346;2022-10-16T13:22:38;20.30;99.90
12588;DHT22;6359;51.450;7.346;2022-10-16T13:25:19;20.60;99.90
12588;DHT22;6359;51.450;7.346;2022-10-16T13:27:52;20.90;99.90
12588;DHT22;6359;51.450;7.346;2022-10-16T13:30:23;20.90;99.90
12588;DHT22;6359;51.450;7.346;2022-10-16T13:32:56;20.50;99.90
12588;DHT22;6359;51.450;7.346;2022-10-16T13:35:26;20.50;99.90
12588;DHT22;6359;51.450;7.346;2022-10-16T13:38:04;20.50;99.90
12588;DHT22;6359;51.450;7.346;2022-10-16T13:40:32;20.30;99.90
12588;DHT22;6359;51.450;7.346;2022-10-16T13:43:00;20.10;99.90
12588;DHT22;6359;51.450;7.346;2022-10-16T13:45:27;20.00;99.90
12588;DHT22;6359;51.450;7.346;2022-10-16T13:48:02;20.20;99.90
12588;DHT22;6359;51.450;7.346;2022-10-16T13:50:29;20.40;99.90
12588;DHT22;6359;51.450;7.346;2022-10-16T13:53:04;20.50;99.90
12588;DHT22;6359;51.450;7.346;2022-10-16T13:55:32;20.50;99.90
12588;DHT22;6359;51.450;7.346;2022-10-16T13:58:07;20.40;99.90
12588;DHT22;6359;51.450;7.346;2022-10-16T14:00:34;20.60;99.90
12588;DHT22;6359;51.450;7.346;2022-10-16T14:03:04;20.50;99.90
12588;DHT22;6359;51.450;7.346;2022-10-16T14:05:32;20.40;99.90
12588;DHT22;6359;51.450;7.346;2022-10-16T14:07:59;20.10;99.90
12588;DHT22;6359;51.450;7.346;2022-10-16T14:10:28;19.80;99.90
12588;DHT22;6359;51.450;7.346;2022-10-16T14:13:02;19.70;99.90
12588;DHT22;6359;51.450;7.346;2022-10-16T14:15:30;19.70;99.90
12588;DHT22;6359;51.450;7.346;2022-10-16T14:17:58;19.80;99.90
12588;DHT22;6359;51.450;7.346;2022-10-16T14:20:27;19.70;99.90
12588;DHT22;6359;51.450;7.346;2022-10-16T14:23:02;19.50;99.90
12588;DHT22;6359;51.450;7.346;2022-10-16T14:25:31;19.50;99.90
12588;DHT22;6359;51.450;7.346;2022-10-16T14:28:02;19.60;99.90
12588;DHT22;6359;51.450;7.346;2022-10-16T14:30:31;19.80;99.90
12588;DHT22;6359;51.450;7.346;2022-10-16T14:33:00;19.70;99.90
12588;DHT22;6359;51.450;7.346;2022-10-16T14:35:30;19.60;99.90
12588;DHT22;6359;51.450;7.346;2022-10-16T14:37:58;19.60;99.90
12588;DHT22;6359;51.450;7.346;2022-10-16T14:40:27;19.40;99.90
12588;DHT22;6359;51.450;7.346;2022-10-16T14:42:55;19.10;99.90
12588;DHT22;6359;51.450;7.346;2022-10-16T14:45:26;19.00;99.90
12588;DHT22;6359;51.450;7.346;2022-10-16T14:47:55;18.90;99.90
12588;DHT22;6359;51.450;7.346;2022-10-16T14:50:22;18.80;99.90
12588;DHT22;6359;51.450;7.346;2022-10-16T14:52:49;18.80;99.90
12588;DHT22;6359;51.450;7.346;2022-10-16T14:55:17;18.90;99.90
12588;DHT22;6359;51.450;7.346;2022-10-16T14:57:45;19.00;99.90
12588;DHT22;6359;51.450;7.346;2022-10-16T15:00:17;19.10;99.90
12588;DHT22;6359;51.450;7.346;2022-10-16T15:02:47;19.20;99.90
12588;DHT22;6359;51.450;7.346;2022-10-16T15:05:17;19.20;99.90
12588;DHT22;6359;51.450;7.346;2022-10-16T15:07:45;19.20;99.90
12588;DHT22;6359;51.450;7.346;2022-10-16T15:10:13;19.10;99.90
12588;DHT22;6359;51.450;7.346;2022-10-16T15:12:40;18.90;99.90
12588;DHT22;6359;51.450;7.346;2022-10-16T15:15:25;18.80;99.90
12588;DHT22;6359;51.450;7.346;2022-10-16T15:17:54;18.70;99.90
12588;DHT22;6359;51.450;7.346;2022-10-16T15:20:22;18.50;99.90
12588;DHT22;6359;51.450;7.346;2022-10-16T15:22:49;18.30;99.90
12588;DHT22;6359;51.450;7.346;2022-10-16T15:25:30;18.20;99.90
12588;DHT22;6359;51.450;7.346;2022-10-16T15:27:58;18.00;99.90
12588;DHT22;6359;51.450;7.346;2022-10-16T15:30:25;17.90;99.90
12588;DHT22;6359;51.450;7.346;2022-10-16T15:32:54;17.80;99.90
12588;DHT22;6359;51.450;7.346;2022-10-16T15:35:21;17.70;99.90
12588;DHT22;6359;51.450;7.346;2022-10-16T15:37:48;17.70;99.90
12588;DHT22;6359;51.450;7.346;2022-10-16T15:40:15;17.60;99.90
12588;DHT22;6359;51.450;7.346;2022-10-16T15:42:42;17.50;99.90
12588;DHT22;6359;51.450;7.346;2022-10-16T15:45:10;17.50;99.90
12588;DHT22;6359;51.450;7.346;2022-10-16T15:47:37;17.40;99.90
12588;DHT22;6359;51.450;7.346;2022-10-16T15:50:06;17.30;99.90
12588;DHT22;6359;51.450;7.346;2022-10-16T15:52:33;17.20;99.90
12588;DHT22;6359;51.450;7.346;2022-10-16T15:55:00;17.20;99.90
12588;DHT22;6359;51.450;7.346;2022-10-16T15:57:28;17.10;99.90
12588;DHT22;6359;51.450;7.346;2022-10-16T15:59:55;17.00;99.90
12588;DHT22;6359;51.450;7.346;2022-10-16T16:02:22;17.00;99.90
12588;DHT22;6359;51.450;7.346;2022-10-16T16:04:49;16.90;99.90
12588;DHT22;6359;51.450;7.346;2022-10-16T16:07:17;16.90;99.90